ARG1603 SAZM-SABE
Flight info
| Callsign | ARG1603 |
|---|---|
| Flight time | N/A |
| Altitude | 31000 |
| Route | PULPA1C PULPA UW31 TENIL TENIL8R |
| Aircraft | B738/M-SDFGHILORVW/S |
Departure
| Time | N/A |
|---|---|
| Airport | Ástor Piazzola International Airport (SAZM) |
Arrival
| Time | 2026-05-07 03:34 |
|---|---|
| Airport | Aeroparque Jorge Newbery (SABE) |
| Time | Latitude | Longitude | Altitude | Speed | Heading |
|---|---|---|---|---|---|
| 2026-05-07 03:15 | -35.46773 | -57.51713 | 20165 ft | 394 kts | 12° |
| 2026-05-07 03:15 | -35.44130 | -57.50933 | 19608 ft | 391 kts | 12° |
| 2026-05-07 03:15 | -35.41470 | -57.50158 | 19051 ft | 387 kts | 12° |
| 2026-05-07 03:16 | -35.38863 | -57.49406 | 18501 ft | 383 kts | 12° |
| 2026-05-07 03:16 | -35.36268 | -57.48667 | 17958 ft | 380 kts | 12° |
| 2026-05-07 03:16 | -35.33714 | -57.47944 | 17456 ft | 374 kts | 13° |
| 2026-05-07 03:16 | -35.31213 | -57.47258 | 17108 ft | 364 kts | 12° |
| 2026-05-07 03:17 | -35.28770 | -57.46652 | 16719 ft | 356 kts | 11° |
| 2026-05-07 03:17 | -35.26349 | -57.46106 | 16243 ft | 353 kts | 6° |
| 2026-05-07 03:17 | -35.23928 | -57.46204 | 15732 ft | 348 kts | 348° |
| 2026-05-07 03:17 | -35.21642 | -57.47092 | 15235 ft | 344 kts | 340° |
| 2026-05-07 03:18 | -35.19420 | -57.48101 | 14735 ft | 341 kts | 340° |
| 2026-05-07 03:18 | -35.17199 | -57.49072 | 14239 ft | 338 kts | 341° |
| 2026-05-07 03:18 | -35.14972 | -57.50043 | 13750 ft | 334 kts | 340° |
| 2026-05-07 03:18 | -35.12806 | -57.50990 | 13276 ft | 331 kts | 340° |
| 2026-05-07 03:19 | -35.10659 | -57.51928 | 12799 ft | 327 kts | 340° |
| 2026-05-07 03:19 | -35.08528 | -57.52862 | 12327 ft | 324 kts | 339° |
| 2026-05-07 03:19 | -35.06511 | -57.54040 | 11870 ft | 316 kts | 330° |
| 2026-05-07 03:19 | -35.04647 | -57.55363 | 11454 ft | 305 kts | 330° |
| 2026-05-07 03:20 | -35.02844 | -57.56624 | 11047 ft | 296 kts | 330° |
| 2026-05-07 03:20 | -35.01067 | -57.57859 | 10648 ft | 290 kts | 330° |
| 2026-05-07 03:20 | -34.99315 | -57.59079 | 10325 ft | 287 kts | 330° |
| 2026-05-07 03:20 | -34.97569 | -57.60294 | 10171 ft | 287 kts | 330° |
| 2026-05-07 03:21 | -34.95834 | -57.61501 | 10016 ft | 288 kts | 330° |
| 2026-05-07 03:21 | -34.94084 | -57.62719 | 10012 ft | 288 kts | 330° |
| 2026-05-07 03:21 | -34.92324 | -57.63943 | 9955 ft | 289 kts | 330° |
| 2026-05-07 03:21 | -34.90570 | -57.65163 | 9889 ft | 289 kts | 330° |
| 2026-05-07 03:22 | -34.88823 | -57.66377 | 9820 ft | 288 kts | 330° |
| 2026-05-07 03:22 | -34.87095 | -57.67578 | 9750 ft | 288 kts | 330° |
| 2026-05-07 03:22 | -34.85339 | -57.68798 | 9679 ft | 287 kts | 330° |
| 2026-05-07 03:22 | -34.83594 | -57.70010 | 9608 ft | 287 kts | 330° |
| 2026-05-07 03:23 | -34.81852 | -57.71220 | 9309 ft | 291 kts | 330° |
| 2026-05-07 03:23 | -34.80096 | -57.72440 | 8879 ft | 285 kts | 330° |
| 2026-05-07 03:23 | -34.78407 | -57.73612 | 8510 ft | 281 kts | 330° |
| 2026-05-07 03:23 | -34.76741 | -57.74836 | 8137 ft | 280 kts | 322° |
| 2026-05-07 03:24 | -34.75450 | -57.76604 | 7767 ft | 273 kts | 297° |
| 2026-05-07 03:24 | -34.74971 | -57.78772 | 7491 ft | 261 kts | 272° |
| 2026-05-07 03:24 | -34.74961 | -57.80965 | 7287 ft | 261 kts | 270° |
| 2026-05-07 03:24 | -34.74954 | -57.83189 | 7061 ft | 261 kts | 270° |
| 2026-05-07 03:25 | -34.74941 | -57.85379 | 6852 ft | 256 kts | 270° |
| 2026-05-07 03:25 | -34.74930 | -57.87244 | 6674 ft | 263 kts | 270° |
| 2026-05-07 03:25 | -34.74920 | -57.89099 | 6485 ft | 253 kts | 270° |
| 2026-05-07 03:25 | -34.74906 | -57.91282 | 6285 ft | 260 kts | 270° |
| 2026-05-07 03:26 | -34.74894 | -57.93201 | 6091 ft | 259 kts | 270° |
| 2026-05-07 03:26 | -34.74885 | -57.94617 | 5945 ft | 255 kts | 271° |
| 2026-05-07 03:26 | -34.74882 | -57.96790 | 5492 ft | 258 kts | 270° |
| 2026-05-07 03:26 | -34.74888 | -57.98973 | 5174 ft | 255 kts | 270° |
| 2026-05-07 03:27 | -34.74896 | -58.01133 | 4947 ft | 249 kts | 270° |
| 2026-05-07 03:27 | -34.74903 | -58.03270 | 4744 ft | 256 kts | 270° |
| 2026-05-07 03:27 | -34.74900 | -58.05432 | 4618 ft | 252 kts | 274° |
| 2026-05-07 03:27 | -34.74424 | -58.07471 | 4618 ft | 254 kts | 302° |
| 2026-05-07 03:28 | -34.73424 | -58.09204 | 4424 ft | 251 kts | 304° |
| 2026-05-07 03:28 | -34.72501 | -58.11028 | 3943 ft | 255 kts | 300° |
| 2026-05-07 03:28 | -34.71634 | -58.12898 | 3775 ft | 245 kts | 300° |
| 2026-05-07 03:28 | -34.70818 | -58.14673 | 3674 ft | 234 kts | 299° |
| 2026-05-07 03:29 | -34.69992 | -58.16368 | 3469 ft | 228 kts | 304° |
| 2026-05-07 03:29 | -34.69098 | -58.17926 | 3215 ft | 225 kts | 305° |
| 2026-05-07 03:29 | -34.68229 | -58.19468 | 3198 ft | 216 kts | 304° |
| 2026-05-07 03:29 | -34.67380 | -58.20990 | 3211 ft | 220 kts | 304° |
| 2026-05-07 03:30 | -34.66553 | -58.22493 | 3217 ft | 205 kts | 303° |
| 2026-05-07 03:30 | -34.65799 | -58.23878 | 3201 ft | 185 kts | 304° |
| 2026-05-07 03:30 | -34.65104 | -58.25144 | 2997 ft | 177 kts | 304° |
| 2026-05-07 03:30 | -34.64444 | -58.26340 | 2796 ft | 158 kts | 304° |
| 2026-05-07 03:31 | -34.63839 | -58.27429 | 2582 ft | 156 kts | 304° |
| 2026-05-07 03:31 | -34.63223 | -58.28537 | 2368 ft | 156 kts | 304° |
| 2026-05-07 03:31 | -34.62619 | -58.29623 | 2162 ft | 156 kts | 304° |
| 2026-05-07 03:31 | -34.62011 | -58.30718 | 1955 ft | 155 kts | 304° |
| 2026-05-07 03:32 | -34.61404 | -58.31809 | 1749 ft | 155 kts | 304° |
| 2026-05-07 03:32 | -34.60804 | -58.32888 | 1543 ft | 154 kts | 304° |
| 2026-05-07 03:32 | -34.60215 | -58.33949 | 1342 ft | 154 kts | 305° |
| 2026-05-07 03:32 | -34.59996 | -58.34346 | 1267 ft | 153 kts | 305° |
| 2026-05-07 03:33 | -34.59411 | -58.35401 | 1067 ft | 153 kts | 305° |
| 2026-05-07 03:33 | -34.58815 | -58.36471 | 872 ft | 152 kts | 306° |
| 2026-05-07 03:33 | -34.58199 | -58.37518 | 678 ft | 151 kts | 306° |
| 2026-05-07 03:33 | -34.57600 | -58.38581 | 485 ft | 151 kts | 305° |
| 2026-05-07 03:34 | -34.57010 | -58.39636 | 282 ft | 148 kts | 305° |
| 2026-05-07 03:34 | -34.56438 | -58.40657 | 65 ft | 146 kts | 306° |
| 2026-05-07 03:34 | -34.55930 | -58.41561 | 27 ft | 92 kts | 304° |
| 2026-05-07 03:34 | -34.55713 | -58.41949 | 27 ft | 39 kts | 303° |
| 2026-05-07 03:35 | -34.55576 | -58.42194 | 27 ft | 31 kts | 303° |
| 2026-05-07 03:35 | -34.55466 | -58.42390 | 27 ft | 20 kts | 305° |
| 2026-05-07 03:35 | -34.55400 | -58.42494 | 27 ft | 9 kts | 332° |
| 2026-05-07 03:35 | -34.55357 | -58.42468 | 27 ft | 7 kts | 81° |
| 2026-05-07 03:36 | -34.55360 | -58.42411 | 27 ft | 5 kts | 98° |
| 2026-05-07 03:36 | -34.55368 | -58.42375 | 27 ft | 3 kts | 111° |
| 2026-05-07 03:36 | -34.55376 | -58.42355 | 27 ft | 2 kts | 121° |
| 2026-05-07 03:36 | -34.55384 | -58.42341 | 27 ft | 3 kts | 125° |
| 2026-05-07 03:37 | -34.55404 | -58.42308 | 27 ft | 7 kts | 127° |
| 2026-05-07 03:37 | -34.55450 | -58.42234 | 27 ft | 15 kts | 127° |
| 2026-05-07 03:37 | -34.55519 | -58.42125 | 27 ft | 15 kts | 127° |
| 2026-05-07 03:37 | -34.55577 | -58.42028 | 27 ft | 13 kts | 125° |
| 2026-05-07 03:38 | -34.55642 | -58.41913 | 27 ft | 19 kts | 123° |
| 2026-05-07 03:38 | -34.55725 | -58.41760 | 27 ft | 22 kts | 121° |
| 2026-05-07 03:38 | -34.55796 | -58.41595 | 27 ft | 19 kts | 116° |
| 2026-05-07 03:38 | -34.55852 | -58.41463 | 27 ft | 12 kts | 116° |
| 2026-05-07 03:39 | -34.55889 | -58.41374 | 27 ft | 9 kts | 117° |
| 2026-05-07 03:39 | -34.55892 | -58.41307 | 27 ft | 7 kts | 53° |
| 2026-05-07 03:39 | -34.55852 | -58.41282 | 27 ft | 5 kts | 356° |
| 2026-05-07 03:39 | -34.55825 | -58.41305 | 27 ft | 4 kts | 306° |
| 2026-05-07 03:40 | -34.55804 | -58.41341 | 27 ft | 6 kts | 302° |
| 2026-05-07 03:40 | -34.55777 | -58.41390 | 27 ft | 7 kts | 303° |
| 2026-05-07 03:40 | -34.55754 | -58.41443 | 27 ft | 4 kts | 277° |
| 2026-05-07 03:40 | -34.55769 | -58.41472 | 27 ft | 3 kts | 216° |
| 2026-05-07 03:41 | -34.55785 | -58.41483 | 27 ft | 1 kts | 206° |
| 2026-05-07 03:41 | -34.55793 | -58.41487 | 27 ft | 0 kts | 207° |